Elon, NC

03:33 EST le 04 Mars 2015 (GMT -0500)
Burlington | Change Station
CLOSE
Current Station
Stations météorologiques personnelles
Location: Burlington, NC
Altitude: 646 ft
Stations météo à proximité

Alt. 646 ft 36.10 °N, 79.47 °W | Updated 10 minutes ago

Brouillard
Brouillard
41.9 ° F
Paraît 40 ° F
N
3.7
Vent Variable Vent de SO

Aujourd'hui
Haut(e) -- | Bas -- ° F
--% Risque de précip.
Hier
Haut(e) -- | Bas -- ° F
Precip. -- pouce
6:44 AM 6:15 PM
Lune gibbeuse croissante, 98% visible
Pression 30.00 pouce
Visibilité 1.2 Miles terrestres
Nuages Couvert 200 ft
Refroidissement éolien 40 ° F
Point de rosée 42 ° F
Humidité 99%
Précipitations 0.00 pouce
Profondeur de la couche neigeuse Non disponible.
UV 0 sur 12
Pollen 2.70 sur 12
Qualité de l'air Non disponible.
Flu Activity Non disponible.
METAR KBUY 040754Z AUTO 21003KT 1 1/4SM BR OVC002 04/03 A2999 RMK AO2 SLP157 T00440033

More Conditions Fewer Conditions

Pression 30.00 pouce
Visibilité 1.2 Miles terrestres
Nuages Couvert 200 ft
Refroidissement éolien 40 ° F
Point de rosée 42 ° F
Humidité 99%
Précipitations 0.00 pouce
Profondeur de la couche neigeuse Non disponible.
UV 0 sur 12
Pollen 2.70 sur 12
Qualité de l'air Non disponible.
Flu Activity Non disponible.
METAR KBUY 040754Z AUTO 21003KT 1 1/4SM BR OVC002 04/03 A2999 RMK AO2 SLP157 T00440033

More Conditions Fewer Conditions

10-Day Weather Forecast

Almanac

Astronomie

Mar. 04, 2015 Lever Coucher
Temps réel
Crépuscule civil
Crépuscule nautique
Crépuscule astronomique
Lune
Durée de lumière visible
Longueur du jour
Tomorrow will be .
, % of the Moon is Illuminated

Extrêmes aujourd'hui

State Highs State Lows

Community

WunderPhotos

Upload Photos

1,802,416 Photos téléchargées !

WunderBlogs® & News

Nearby

Qualité de l'air

  Qualité de l'air Indice de la qualité de l'air Polluant
Not available.

Épaisseur de neige

Station Depth Altitude

Activité sismique

Ville Distance Mag. Time & Date
Minimum magnitude displayed is 2.5.

Températures des eaux côtières

Lieu Température

Stations météo à proximité